N858TH MPMG-MPBO
Flight info
| Callsign | N858TH |
|---|---|
| Flight time | 0h 31m |
| Altitude | 26000 |
| Route | KIKES G440 GEMER |
| Aircraft | C750/M-SBDE3FGHRWXY/S |
Departure
| Time | 2026-04-26 04:39 |
|---|---|
| Airport | Marcos A. Gelabert International Airport (MPMG) |
Arrival
| Time | 2026-04-26 05:10 |
|---|---|
| Airport | Bocas del Toro "Isla Colón" International Airport (MPBO) |
| Time | Latitude | Longitude | Altitude | Speed | Heading |
|---|---|---|---|---|---|
| 2026-04-26 04:33 | 8.97135 | -79.55797 | 32 ft | 0 kts | 129° |
| 2026-04-26 04:36 | 8.97145 | -79.55811 | 33 ft | 6 kts | 153° |
| 2026-04-26 04:36 | 8.97143 | -79.55836 | 33 ft | 14 kts | 255° |
| 2026-04-26 04:37 | 8.96993 | -79.55923 | 31 ft | 40 kts | 200° |
| 2026-04-26 04:37 | 8.96714 | -79.55957 | 31 ft | 39 kts | 135° |
| 2026-04-26 04:37 | 8.96546 | -79.55774 | 31 ft | 34 kts | 99° |
| 2026-04-26 04:37 | 8.96568 | -79.55626 | 29 ft | 10 kts | 13° |
| 2026-04-26 04:38 | 8.96573 | -79.55625 | 29 ft | 0 kts | 9° |
| 2026-04-26 04:38 | 8.96763 | -79.55611 | 29 ft | 81 kts | 5° |
| 2026-04-26 04:39 | 8.97638 | -79.55536 | 169 ft | 147 kts | 4° |
| 2026-04-26 04:39 | 8.98645 | -79.55432 | 926 ft | 143 kts | 9° |
| 2026-04-26 04:39 | 8.99655 | -79.55488 | 1526 ft | 159 kts | 341° |
| 2026-04-26 04:39 | 9.00670 | -79.56101 | 2009 ft | 184 kts | 316° |
| 2026-04-26 04:40 | 9.01365 | -79.57276 | 2555 ft | 209 kts | 285° |
| 2026-04-26 04:40 | 9.01343 | -79.58815 | 3111 ft | 233 kts | 257° |
| 2026-04-26 04:40 | 9.00884 | -79.60467 | 3760 ft | 254 kts | 253° |
| 2026-04-26 04:40 | 9.00380 | -79.62252 | 4503 ft | 270 kts | 254° |
| 2026-04-26 04:41 | 8.99894 | -79.64091 | 5501 ft | 272 kts | 255° |
| 2026-04-26 04:41 | 8.99401 | -79.65956 | 6420 ft | 277 kts | 255° |
| 2026-04-26 04:41 | 8.98891 | -79.67855 | 7342 ft | 281 kts | 255° |
| 2026-04-26 04:41 | 8.98374 | -79.69778 | 8375 ft | 285 kts | 255° |
| 2026-04-26 04:42 | 8.97851 | -79.71729 | 9401 ft | 290 kts | 255° |
| 2026-04-26 04:42 | 8.97326 | -79.73692 | 10237 ft | 298 kts | 255° |
| 2026-04-26 04:42 | 8.96753 | -79.75828 | 10523 ft | 324 kts | 255° |
| 2026-04-26 04:42 | 8.96145 | -79.78095 | 10647 ft | 352 kts | 255° |
| 2026-04-26 04:43 | 8.95493 | -79.80525 | 11221 ft | 360 kts | 256° |
| 2026-04-26 04:43 | 8.94837 | -79.82966 | 12042 ft | 362 kts | 255° |
| 2026-04-26 04:43 | 8.94173 | -79.85441 | 12729 ft | 367 kts | 255° |
| 2026-04-26 04:43 | 8.93501 | -79.87945 | 13465 ft | 371 kts | 255° |
| 2026-04-26 04:44 | 8.92821 | -79.90476 | 14128 ft | 375 kts | 256° |
| 2026-04-26 04:44 | 8.92133 | -79.93037 | 14775 ft | 378 kts | 256° |
| 2026-04-26 04:44 | 8.91441 | -79.95615 | 15416 ft | 382 kts | 256° |
| 2026-04-26 04:44 | 8.90741 | -79.98219 | 16071 ft | 385 kts | 256° |
| 2026-04-26 04:45 | 8.90035 | -80.00845 | 16741 ft | 389 kts | 256° |
| 2026-04-26 04:45 | 8.89323 | -80.03496 | 17439 ft | 392 kts | 256° |
| 2026-04-26 04:45 | 8.88942 | -80.06226 | 17997 ft | 396 kts | 272° |
| 2026-04-26 04:45 | 8.89347 | -80.08982 | 18688 ft | 397 kts | 282° |
| 2026-04-26 04:46 | 8.89907 | -80.11723 | 19303 ft | 401 kts | 283° |
| 2026-04-26 04:46 | 8.90491 | -80.14494 | 19930 ft | 405 kts | 282° |
| 2026-04-26 04:46 | 8.91048 | -80.17304 | 20573 ft | 410 kts | 282° |
| 2026-04-26 04:46 | 8.91599 | -80.20152 | 21190 ft | 415 kts | 282° |
| 2026-04-26 04:47 | 8.92172 | -80.23024 | 21824 ft | 419 kts | 282° |
| 2026-04-26 04:47 | 8.92762 | -80.25932 | 22448 ft | 424 kts | 282° |
| 2026-04-26 04:47 | 8.93350 | -80.28877 | 23074 ft | 429 kts | 282° |
| 2026-04-26 04:47 | 8.93937 | -80.31853 | 23663 ft | 434 kts | 282° |
| 2026-04-26 04:48 | 8.95139 | -80.37881 | 24773 ft | 440 kts | 282° |
| 2026-04-26 04:48 | 8.95746 | -80.40928 | 25327 ft | 444 kts | 281° |
| 2026-04-26 04:48 | 8.96353 | -80.43988 | 25860 ft | 446 kts | 281° |
| 2026-04-26 04:49 | 8.96974 | -80.47116 | 25931 ft | 462 kts | 281° |
| 2026-04-26 04:49 | 8.97619 | -80.50360 | 25935 ft | 478 kts | 281° |
| 2026-04-26 04:49 | 8.98285 | -80.53708 | 25946 ft | 493 kts | 281° |
| 2026-04-26 04:49 | 8.98968 | -80.57157 | 25941 ft | 506 kts | 281° |
| 2026-04-26 04:50 | 8.99667 | -80.60686 | 25946 ft | 515 kts | 281° |
| 2026-04-26 04:50 | 9.00374 | -80.64252 | 25945 ft | 520 kts | 281° |
| 2026-04-26 04:50 | 9.01076 | -80.67794 | 25946 ft | 522 kts | 281° |
| 2026-04-26 04:50 | 9.01798 | -80.71440 | 25942 ft | 522 kts | 281° |
| 2026-04-26 04:51 | 9.02501 | -80.74992 | 25940 ft | 522 kts | 281° |
| 2026-04-26 04:51 | 9.03216 | -80.78595 | 25943 ft | 523 kts | 281° |
| 2026-04-26 04:51 | 9.03931 | -80.82206 | 25944 ft | 522 kts | 281° |
| 2026-04-26 04:51 | 9.04642 | -80.85806 | 25942 ft | 522 kts | 281° |
| 2026-04-26 04:52 | 9.05355 | -80.89416 | 25945 ft | 522 kts | 281° |
| 2026-04-26 04:52 | 9.06064 | -80.93010 | 25940 ft | 517 kts | 281° |
| 2026-04-26 04:52 | 9.06768 | -80.96573 | 25939 ft | 517 kts | 281° |
| 2026-04-26 04:52 | 9.07470 | -81.00131 | 25938 ft | 515 kts | 281° |
| 2026-04-26 04:53 | 9.08169 | -81.03680 | 25935 ft | 514 kts | 281° |
| 2026-04-26 04:53 | 9.08877 | -81.07227 | 25932 ft | 514 kts | 281° |
| 2026-04-26 04:53 | 9.09647 | -81.10757 | 25931 ft | 513 kts | 282° |
| 2026-04-26 04:53 | 9.10441 | -81.14271 | 25931 ft | 512 kts | 282° |
| 2026-04-26 04:54 | 9.11196 | -81.17801 | 25934 ft | 513 kts | 282° |
| 2026-04-26 04:54 | 9.11924 | -81.21332 | 25934 ft | 512 kts | 282° |
| 2026-04-26 04:54 | 9.12666 | -81.24812 | 25882 ft | 506 kts | 282° |
| 2026-04-26 04:54 | 9.13404 | -81.28173 | 25261 ft | 474 kts | 282° |
| 2026-04-26 04:55 | 9.14085 | -81.31332 | 24651 ft | 448 kts | 282° |
| 2026-04-26 04:55 | 9.14726 | -81.34377 | 24071 ft | 438 kts | 283° |
| 2026-04-26 04:55 | 9.15363 | -81.37381 | 23497 ft | 436 kts | 283° |
| 2026-04-26 04:55 | 9.16010 | -81.40380 | 22880 ft | 443 kts | 283° |
| 2026-04-26 04:56 | 9.16683 | -81.43508 | 22280 ft | 457 kts | 283° |
| 2026-04-26 04:56 | 9.17360 | -81.46698 | 21675 ft | 466 kts | 283° |
| 2026-04-26 04:56 | 9.18041 | -81.49908 | 21058 ft | 466 kts | 283° |
| 2026-04-26 04:56 | 9.18726 | -81.53107 | 20449 ft | 464 kts | 283° |
| 2026-04-26 04:57 | 9.19407 | -81.56290 | 19828 ft | 461 kts | 283° |
| 2026-04-26 04:57 | 9.20077 | -81.59439 | 19224 ft | 456 kts | 283° |
| 2026-04-26 04:57 | 9.20741 | -81.62566 | 18622 ft | 452 kts | 283° |
| 2026-04-26 04:57 | 9.21403 | -81.65667 | 17998 ft | 448 kts | 283° |
| 2026-04-26 04:58 | 9.22057 | -81.68735 | 17403 ft | 443 kts | 283° |
| 2026-04-26 04:58 | 9.22701 | -81.71770 | 16824 ft | 439 kts | 283° |
| 2026-04-26 04:58 | 9.23341 | -81.74776 | 16245 ft | 435 kts | 283° |
| 2026-04-26 04:58 | 9.23973 | -81.77751 | 15675 ft | 431 kts | 283° |
| 2026-04-26 04:59 | 9.24601 | -81.80703 | 15107 ft | 426 kts | 283° |
| 2026-04-26 04:59 | 9.25195 | -81.83624 | 14541 ft | 422 kts | 281° |
| 2026-04-26 04:59 | 9.25316 | -81.86583 | 13982 ft | 420 kts | 270° |
| 2026-04-26 04:59 | 9.25258 | -81.89523 | 13416 ft | 416 kts | 270° |
| 2026-04-26 05:00 | 9.25223 | -81.92404 | 12871 ft | 413 kts | 271° |
| 2026-04-26 05:00 | 9.25219 | -81.95219 | 12342 ft | 384 kts | 271° |
| 2026-04-26 05:00 | 9.25206 | -81.97819 | 11857 ft | 356 kts | 270° |
| 2026-04-26 05:00 | 9.25179 | -82.00243 | 11402 ft | 333 kts | 270° |
| 2026-04-26 05:01 | 9.25157 | -82.02522 | 10974 ft | 315 kts | 271° |
| 2026-04-26 05:01 | 9.25144 | -82.04687 | 10568 ft | 302 kts | 271° |
| 2026-04-26 05:01 | 9.25129 | -82.06787 | 10179 ft | 296 kts | 271° |
| 2026-04-26 05:01 | 9.25110 | -82.08855 | 9791 ft | 293 kts | 271° |
| 2026-04-26 05:02 | 9.25093 | -82.10936 | 9393 ft | 308 kts | 271° |
| 2026-04-26 05:02 | 9.25077 | -82.13229 | 8970 ft | 345 kts | 270° |
| 2026-04-26 05:02 | 9.25054 | -82.15776 | 8493 ft | 372 kts | 270° |
| 2026-04-26 05:02 | 9.25028 | -82.18389 | 7995 ft | 366 kts | 270° |
| 2026-04-26 05:03 | 9.25006 | -82.20812 | 7586 ft | 307 kts | 270° |
| 2026-04-26 05:03 | 9.24987 | -82.22894 | 7188 ft | 290 kts | 270° |
| 2026-04-26 05:03 | 9.24971 | -82.24914 | 6811 ft | 285 kts | 270° |
| 2026-04-26 05:03 | 9.24954 | -82.26908 | 6444 ft | 283 kts | 270° |
| 2026-04-26 05:04 | 9.24935 | -82.28891 | 6064 ft | 281 kts | 270° |
| 2026-04-26 05:04 | 9.24918 | -82.30860 | 5696 ft | 279 kts | 270° |
| 2026-04-26 05:04 | 9.24900 | -82.32815 | 5334 ft | 277 kts | 270° |
| 2026-04-26 05:04 | 9.24883 | -82.34757 | 4972 ft | 275 kts | 270° |
| 2026-04-26 05:05 | 9.24867 | -82.36693 | 4608 ft | 274 kts | 270° |
| 2026-04-26 05:05 | 9.25181 | -82.38575 | 4172 ft | 273 kts | 294° |
| 2026-04-26 05:05 | 9.26317 | -82.40073 | 3834 ft | 270 kts | 320° |
| 2026-04-26 05:05 | 9.27993 | -82.40878 | 3522 ft | 269 kts | 347° |
| 2026-04-26 05:06 | 9.29836 | -82.41027 | 3233 ft | 266 kts | 360° |
| 2026-04-26 05:06 | 9.31597 | -82.40537 | 2819 ft | 261 kts | 31° |
| 2026-04-26 05:06 | 9.32829 | -82.39327 | 2520 ft | 236 kts | 57° |
| 2026-04-26 05:06 | 9.33336 | -82.37993 | 2264 ft | 184 kts | 81° |
| 2026-04-26 05:07 | 9.33421 | -82.36834 | 2064 ft | 150 kts | 89° |
| 2026-04-26 05:07 | 9.33483 | -82.35843 | 1885 ft | 135 kts | 88° |
| 2026-04-26 05:07 | 9.33539 | -82.34903 | 1736 ft | 132 kts | 88° |
| 2026-04-26 05:07 | 9.33591 | -82.33978 | 1634 ft | 128 kts | 88° |
| 2026-04-26 05:08 | 9.33643 | -82.33073 | 1688 ft | 129 kts | 88° |
| 2026-04-26 05:08 | 9.33694 | -82.32150 | 1579 ft | 134 kts | 88° |
| 2026-04-26 05:08 | 9.33745 | -82.31218 | 1343 ft | 133 kts | 89° |
| 2026-04-26 05:08 | 9.33797 | -82.30276 | 954 ft | 134 kts | 88° |
| 2026-04-26 05:09 | 9.33849 | -82.29345 | 682 ft | 127 kts | 88° |
| 2026-04-26 05:09 | 9.33899 | -82.28447 | 544 ft | 129 kts | 89° |
| 2026-04-26 05:09 | 9.33950 | -82.27536 | 388 ft | 130 kts | 88° |
| 2026-04-26 05:09 | 9.34001 | -82.26621 | 213 ft | 130 kts | 88° |
| 2026-04-26 05:10 | 9.34051 | -82.25708 | 47 ft | 128 kts | 88° |
| 2026-04-26 05:10 | 9.34093 | -82.24933 | 7 ft | 82 kts | 86° |
| 2026-04-26 05:10 | 9.34115 | -82.24543 | 8 ft | 34 kts | 86° |
| 2026-04-26 05:10 | 9.34116 | -82.24435 | 7 ft | 1 kts | 126° |
| 2026-04-26 05:11 | 9.34089 | -82.24435 | 7 ft | 0 kts | 268° |